Other Surface Observations
Issued by NWS Missoula, MT

Home | Current Version | Previous Version | Text Only | Print | Product List | Glossary On
Versions: 1 2 3 4 5 6 7 8 9 10 11 12 13 14 15 16 17 18 19 20 21 22 23 24 25 26 27 28 29 30 31 32 33 34 35 36 37 38 39 40 41 42 43 44 45 46 47 48 49 50
000
SXUS55 KMSO 282103
OSOMSO
MONTANA AWOS SUMMARY
NATIONAL WEATHER SERVICE MISSOULA MT
203 PM MST SAT FEB 28 2015

Montana AWOS Reports

LAUREL      |K6S8 282055Z AUTO 00000KT 40SM M04/M14 A3006 RMK AO1 T10431143
ROUNDUP     |KRPX 282055Z AUTO 00000KT 40SM M04/M16 A3000 RMK AO1 T10431155
SCOBEY      |K9S2 282055Z AUTO 29014G20KT 40SM M09/M19 A3008 RMK AO1 T10881188
TWIN BRIDGES|K7S1 282055Z AUTO 34015G22KT 40SM M04/M16 A2996 RMK AO1 T10381160
MALTA       |KM75 282055Z AUTO 24014G19KT 40SM M05/M14 A3012 RMK AO1 T10491143




USA.gov is the U.S. government's official web portal to all federal, state and local government web resources and services.